Beloit, KS (67420)

10:51 PM CST on February 09, 2016 (GMT -0600)
Kansas | | Change Station
CLOSE
Current Station
Personal Weather Station
Location: Beloit, KS
Elevation: 1404 ft
Nearby Weather Stations

Elev 1404 ft 39.46 °N, 98.10 °W | Updated 14 seconds ago

Partly Cloudy
Partly Cloudy
25.7 °F
Feels Like 26 °F
N
0.0
Wind Variable Wind from WNW
Gusts 0.0 mph

Today
High -- | Low -- °F
--% Chance of Precip.
Yesterday
High -- | Low -- °F
Precip. -- in
Pressure 30.31 in
Visibility 10.0 miles
Clouds Clear
Windchill 26 °F
Dew Point 18 °F
Humidity 72%
Rainfall 0.00 in
Snow Depth Not available.
7:32 AM 6:01 PM
Waxing Crescent, 3% visible
METAR KCNK 100355Z AUTO 22005KT 10SM CLR M06/M10 A3025 RMK AO2 SLP263 T10561100
Pressure 30.31 in
Visibility 10.0 miles
Clouds Clear
Windchill 26 °F
Dew Point 18 °F
Humidity 72%
Rainfall 0.00 in
Snow Depth Not available.
7:32 AM 6:01 PM
Waxing Crescent, 3% visible
METAR KCNK 100355Z AUTO 22005KT 10SM CLR M06/M10 A3025 RMK AO2 SLP263 T10561100

10-Day Weather Forecast

Almanac

Astronomy

Feb. 09, 2016 Rise Set
Actual Time
Civil Twilight
Nautical Twilight
Astronomical Twilight
Moon
Length of Visible Light
Length of Day
Tomorrow will be .
, % of the Moon is Illuminated

Today's Extremes

State Highs State Lows

Community

WunderPhotos

Upload Photos

1,891,810 photos uploaded!

WunderBlog® & News

Nearby

Air Quality

  Air Quality AQ Index Pollutant
Not available.

Snow Depth

Station Depth Elevation

Earthquake Activity

City Distance Mag. Time & Date
Minimum magnitude displayed is 2.5.

Coastal Water Temperatures

Place Temperature

Stations

Nearby Weather Stations

Station Location Temp. Windchill Dew Point Humidity Wind Precip. Elev Updated Type
                   

Watches & Warnings

There are currently no watches in effect.